San Amerigo — A8OK6 — position and weather

sailwx.info

Track history (hours):
 
Tides and Currents Weather Stations Pressure Air Temp Water Temp Dewpoint Dewpoint Depression Visibility Wind Speed Wind Dir Waves Ship Positions

San Amerigo

Last reported at 2018-Jan-18 19:28 UTC. Time now 2018-Jan-18 19:49 UTC.
Position N 36°09' W 005°26'.

Length 170 m; beam 27 m; draft 11.3 m.

Type: Ship (hazmat cat B). MMSI: 636091490.

Date/timePositionNaut miles runAvg speedWind from/ knotsBaromVisibWave heightAir tempDewpointWater temp
2018-Jan-18 19:28N 36°09' W 005°26'0 0.0
2018-Jan-18 18:58N 36°09' W 005°25'0 0.0
2018-Jan-18 18:28N 36°09' W 005°26'0 0.0
2018-Jan-18 17:58N 36°09' W 005°26'0 0.1
2018-Jan-18 17:28N 36°09' W 005°26'0 0.0
2018-Jan-18 16:58N 36°09' W 005°26'0 0.1
2018-Jan-18 16:30N 36°09' W 005°25'2 3.6
2018-Jan-18 16:00N 36°08' W 005°24'5 9.2
2018-Jan-18 15:30N 36°04' W 005°22'2 4.7
2018-Jan-18 15:00N 36°03' W 005°19'0 0.2
2018-Jan-18 14:30N 36°03' W 005°19'0 0.0
2018-Jan-18 14:00N 36°03' W 005°19'2 3.5
2018-Jan-18 13:30N 36°03' W 005°21'1 2.5
2018-Jan-18 13:00N 36°02' W 005°22'4 9.0
2018-Jan-18 12:30N 35°58' W 005°24'5 9.1
2018-Jan-18 12:00N 35°56' W 005°29'2 3.6
2018-Jan-18 11:28N 35°54' W 005°29'0 0.0
2018-Jan-18 10:58N 35°54' W 005°29'0 0.0
2018-Jan-18 10:28N 35°54' W 005°29'0 0.0
2018-Jan-18 09:58N 35°54' W 005°29'0 0.0
2018-Jan-18 09:28N 35°54' W 005°29'0 0.0
2018-Jan-18 08:58N 35°54' W 005°29'0 0.0
2018-Jan-18 08:25N 35°54' W 005°29'0 0.0
2018-Jan-18 07:55N 35°54' W 005°29'0 0.0
2018-Jan-18 07:28N 35°54' W 005°29'0 0.0
2018-Jan-18 06:58N 35°54' W 005°29'0 0.0
2018-Jan-18 06:25N 35°54' W 005°29'0 0.0
2018-Jan-18 05:58N 35°54' W 005°29'0 0.0
2018-Jan-18 05:28N 35°54' W 005°29'0 0.0
2018-Jan-18 04:58N 35°54' W 005°29'0 0.2
2018-Jan-18 04:30N 35°54' W 005°30'2 3.6
2018-Jan-18 04:00N 35°55' W 005°30'2 4.2
2018-Jan-18 03:31N 35°54' W 005°32'0 0.8
2018-Jan-18 03:00N 35°54' W 005°33'1 2.3
2018-Jan-18 02:30N 35°53' W 005°33'1 2.8
2018-Jan-18 01:59N 35°52' W 005°35'0 0.1
2018-Jan-18 01:29N 35°52' W 005°35'0 0.0
2018-Jan-18 00:59N 35°52' W 005°35'0 0.0
2018-Jan-17 23:59N 35°52' W 005°35'0 0.1
2018-Jan-17 23:56N 35°52' W 005°35'87 9.7
2018-Jan-17 15:00N 35°00' W 007°00'3411.5 020 / 221020.010.8 15.011.620.0
2018-Jan-17 12:00N 34°36' W 007°30'11913.2 020 / 51023.510.8 16.513.220.0
2018-Jan-17 03:00N 33°18' W 009°18'42511.8 030 / 241024.010.8 16.512.320.0
2018-Jan-15 15:00N 27°30' W 014°00'18215.1 010 / 281020.010.8 17.510.621.0
2018-Jan-15 03:00N 25°00' W 015°54'4715.8 040 / 271021.510.8 17.512.520.0
2018-Jan-15 00:00N 24°18' W 016°18'35214.7 040 / 251022.0 5.4 18.014.820.0
2018-Jan-14 00:00N 18°36' W 017°48'   010 / 161016.5 5.4 19.517.221.0
Track history (hours):
 
Tides and Currents Weather Stations Pressure Air Temp Water Temp Dewpoint Dewpoint Depression Visibility Wind Speed Wind Dir Waves Ship Positions

San Amerigo

Last reported at 2018-Jan-18 19:28 UTC. Time now 2018-Jan-18 19:49 UTC.
Position N 36°09' W 005°26'.

Length 170 m; beam 27 m; draft 11.3 m.

Type: Ship (hazmat cat B). MMSI: 636091490.

Date/timePositionNaut miles runAvg speedWind from/ knotsBaromVisibWave heightAir tempDewpointWater temp
2018-Jan-18 19:28N 36°09' W 005°26'0 0.0
2018-Jan-18 18:58N 36°09' W 005°25'0 0.0
2018-Jan-18 18:28N 36°09' W 005°26'0 0.0
2018-Jan-18 17:58N 36°09' W 005°26'0 0.1
2018-Jan-18 17:28N 36°09' W 005°26'0 0.0
2018-Jan-18 16:58N 36°09' W 005°26'0 0.1
2018-Jan-18 16:30N 36°09' W 005°25'2 3.6
2018-Jan-18 16:00N 36°08' W 005°24'5 9.2
2018-Jan-18 15:30N 36°04' W 005°22'2 4.7
2018-Jan-18 15:00N 36°03' W 005°19'0 0.2
2018-Jan-18 14:30N 36°03' W 005°19'0 0.0
2018-Jan-18 14:00N 36°03' W 005°19'2 3.5
2018-Jan-18 13:30N 36°03' W 005°21'1 2.5
2018-Jan-18 13:00N 36°02' W 005°22'4 9.0
2018-Jan-18 12:30N 35°58' W 005°24'5 9.1
2018-Jan-18 12:00N 35°56' W 005°29'2 3.6
2018-Jan-18 11:28N 35°54' W 005°29'0 0.0
2018-Jan-18 10:58N 35°54' W 005°29'0 0.0
2018-Jan-18 10:28N 35°54' W 005°29'0 0.0
2018-Jan-18 09:58N 35°54' W 005°29'0 0.0
2018-Jan-18 09:28N 35°54' W 005°29'0 0.0
2018-Jan-18 08:58N 35°54' W 005°29'0 0.0
2018-Jan-18 08:25N 35°54' W 005°29'0 0.0
2018-Jan-18 07:55N 35°54' W 005°29'0 0.0
2018-Jan-18 07:28N 35°54' W 005°29'0 0.0
2018-Jan-18 06:58N 35°54' W 005°29'0 0.0
2018-Jan-18 06:25N 35°54' W 005°29'0 0.0
2018-Jan-18 05:58N 35°54' W 005°29'0 0.0
2018-Jan-18 05:28N 35°54' W 005°29'0 0.0
2018-Jan-18 04:58N 35°54' W 005°29'0 0.2
2018-Jan-18 04:30N 35°54' W 005°30'2 3.6
2018-Jan-18 04:00N 35°55' W 005°30'2 4.2
2018-Jan-18 03:31N 35°54' W 005°32'0 0.8
2018-Jan-18 03:00N 35°54' W 005°33'1 2.3
2018-Jan-18 02:30N 35°53' W 005°33'1 2.8
2018-Jan-18 01:59N 35°52' W 005°35'0 0.1
2018-Jan-18 01:29N 35°52' W 005°35'0 0.0
2018-Jan-18 00:59N 35°52' W 005°35'0 0.0
2018-Jan-17 23:59N 35°52' W 005°35'0 0.1
2018-Jan-17 23:56N 35°52' W 005°35'87 9.7
2018-Jan-17 15:00N 35°00' W 007°00'3411.5 020 / 221020.010.8 15.011.620.0
2018-Jan-17 12:00N 34°36' W 007°30'11913.2 020 / 51023.510.8 16.513.220.0
2018-Jan-17 03:00N 33°18' W 009°18'42511.8 030 / 241024.010.8 16.512.320.0
2018-Jan-15 15:00N 27°30' W 014°00'18215.1 010 / 281020.010.8 17.510.621.0
2018-Jan-15 03:00N 25°00' W 015°54'4715.8 040 / 271021.510.8 17.512.520.0
2018-Jan-15 00:00N 24°18' W 016°18'35214.7 040 / 251022.0 5.4 18.014.820.0
2018-Jan-14 00:00N 18°36' W 017°48'   010 / 161016.5 5.4 19.517.221.0

Dump ship's entire track history